createdAt,value
2022-09-26T00:01:32.979Z,17.70
2022-09-26T00:04:02.919Z,17.90
2022-09-26T00:06:30.310Z,17.80
2022-09-26T00:09:00.822Z,17.97
2022-09-26T00:11:31.331Z,18.37
2022-09-26T00:14:01.328Z,17.47
2022-09-26T00:16:28.548Z,17.63
2022-09-26T00:18:57.056Z,18.00
2022-09-26T00:21:24.917Z,17.97
2022-09-26T00:23:52.118Z,18.37
2022-09-26T00:26:21.196Z,18.43
2022-09-26T00:28:48.581Z,17.90
2022-09-26T00:31:19.690Z,17.43
2022-09-26T00:33:47.118Z,17.37
2022-09-26T00:36:14.045Z,18.53
2022-09-26T00:38:40.953Z,18.50
2022-09-26T00:41:08.886Z,18.53
2022-09-26T00:43:41.809Z,19.57
2022-09-26T00:46:32.852Z,18.67
2022-09-26T00:49:14.289Z,18.80
2022-09-26T00:51:46.289Z,18.67
2022-09-26T00:54:19.134Z,18.17
2022-09-26T00:56:49.701Z,17.97
2022-09-26T00:59:25.299Z,18.53
2022-09-26T01:01:55.175Z,17.60
2022-09-26T01:04:25.771Z,18.07
2022-09-26T01:06:52.731Z,17.70
2022-09-26T01:09:21.144Z,18.93
2022-09-26T01:11:48.139Z,19.67
2022-09-26T01:14:15.789Z,19.07
2022-09-26T01:16:47.511Z,19.67
2022-09-26T01:19:37.492Z,18.73
2022-09-26T01:22:59.779Z,19.20
2022-09-26T01:26:14.142Z,19.33
2022-09-26T01:28:59.322Z,19.83
2022-09-26T01:32:04.953Z,19.30
2022-09-26T01:34:58.276Z,20.53
2022-09-26T01:37:37.727Z,21.83
2022-09-26T01:40:16.060Z,21.27
2022-09-26T01:42:52.058Z,21.57
2022-09-26T01:45:23.091Z,21.20
2022-09-26T01:48:08.323Z,21.63
2022-09-26T01:50:43.933Z,21.80
2022-09-26T01:53:38.633Z,21.23
2022-09-26T01:56:14.708Z,21.43
2022-09-26T02:01:43.415Z,21.57
2022-09-26T02:04:17.883Z,20.97
2022-09-26T02:07:00.625Z,20.40
2022-09-26T02:09:38.083Z,20.67
2022-09-26T02:12:07.192Z,21.30
2022-09-26T02:14:41.836Z,21.10
2022-09-26T02:17:13.047Z,20.73
2022-09-26T02:19:58.284Z,21.60
2022-09-26T02:22:29.545Z,21.33
2022-09-26T02:24:56.368Z,21.37
2022-09-26T02:27:24.739Z,21.67
2022-09-26T02:29:51.680Z,21.93
2022-09-26T02:32:40.502Z,21.57
2022-09-26T02:35:30.151Z,20.87
2022-09-26T02:37:57.233Z,21.77
2022-09-26T02:40:32.841Z,21.70
2022-09-26T02:43:39.431Z,20.87
2022-09-26T02:46:27.381Z,20.90
2022-09-26T02:49:10.373Z,21.47
2022-09-26T02:51:49.840Z,21.40
2022-09-26T02:54:22.507Z,20.07
2022-09-26T02:57:40.457Z,20.87
2022-09-26T03:00:25.591Z,19.70
2022-09-26T03:03:17.192Z,20.67
2022-09-26T03:05:46.304Z,19.63
2022-09-26T03:08:28.511Z,20.23
2022-09-26T03:10:59.037Z,20.23
2022-09-26T03:13:28.054Z,20.60
2022-09-26T03:15:58.687Z,19.97
2022-09-26T03:18:31.714Z,19.87
2022-09-26T03:20:59.901Z,20.87
2022-09-26T03:23:30.386Z,19.90
2022-09-26T03:26:19.006Z,19.77
2022-09-26T03:28:46.282Z,20.33
2022-09-26T03:31:13.214Z,19.87
2022-09-26T03:33:40.540Z,20.53
2022-09-26T03:36:09.701Z,20.17
2022-09-26T03:38:39.629Z,20.27
2022-09-26T03:41:07.516Z,20.87
2022-09-26T03:43:34.411Z,20.93
2022-09-26T03:46:06.391Z,21.33
2022-09-26T03:48:34.203Z,20.00
2022-09-26T03:51:09.076Z,20.97
2022-09-26T03:53:37.945Z,20.73
2022-09-26T03:56:15.111Z,20.73
2022-09-26T03:58:43.600Z,20.93
2022-09-26T04:01:17.007Z,20.50
2022-09-26T04:03:50.318Z,21.03
2022-09-26T04:06:20.826Z,19.57
2022-09-26T04:08:50.089Z,20.50
2022-09-26T04:11:20.284Z,20.77
2022-09-26T04:13:52.902Z,20.13
2022-09-26T04:16:22.850Z,20.40
2022-09-26T04:18:55.361Z,19.83
2022-09-26T04:21:22.874Z,20.17
2022-09-26T04:23:50.344Z,19.63
2022-09-26T04:26:23.220Z,20.93
2022-09-26T04:28:54.833Z,20.37
2022-09-26T04:31:30.858Z,19.57
2022-09-26T04:33:57.962Z,19.47
2022-09-26T04:36:31.304Z,19.43
2022-09-26T04:39:07.188Z,19.83
2022-09-26T04:41:34.468Z,19.40
2022-09-26T04:44:24.670Z,20.30
2022-09-26T04:46:49.526Z,21.07
2022-09-26T04:49:16.547Z,20.93
2022-09-26T04:51:43.487Z,20.27
2022-09-26T04:54:13.538Z,20.93
2022-09-26T04:56:40.591Z,19.57
2022-09-26T04:59:07.453Z,20.60
2022-09-26T05:01:34.431Z,21.13
2022-09-26T05:04:01.877Z,20.83
2022-09-26T05:06:28.729Z,21.00
2022-09-26T05:08:55.822Z,20.37
2022-09-26T05:11:22.985Z,20.30
2022-09-26T05:13:53.534Z,20.17
2022-09-26T05:16:21.272Z,20.03
2022-09-26T05:18:52.116Z,21.17
2022-09-26T05:21:18.990Z,19.30
2022-09-26T05:24:04.328Z,19.27
2022-09-26T05:26:37.461Z,18.60
2022-09-26T05:29:08.530Z,18.07
2022-09-26T05:31:38.593Z,19.50
2022-09-26T05:34:20.538Z,18.40
2022-09-26T05:36:47.795Z,18.13
2022-09-26T05:39:45.338Z,18.47
2022-09-26T05:42:12.423Z,17.47
2022-09-26T05:44:39.863Z,19.00
2022-09-26T05:47:08.613Z,17.83
2022-09-26T05:49:36.072Z,18.30
2022-09-26T05:52:04.027Z,18.23
2022-09-26T05:54:32.053Z,19.00
2022-09-26T05:56:59.113Z,18.43
2022-09-26T05:59:25.929Z,18.10
2022-09-26T06:01:52.896Z,17.67
2022-09-26T06:04:20.200Z,18.60
2022-09-26T06:06:58.988Z,17.73
2022-09-26T06:09:25.884Z,17.70
2022-09-26T06:11:52.984Z,18.33
2022-09-26T06:17:04.526Z,18.03
2022-09-26T06:19:31.358Z,19.53
2022-09-26T06:21:58.125Z,19.10
2022-09-26T06:24:24.970Z,19.23
2022-09-26T06:26:54.941Z,19.23
2022-09-26T06:29:21.746Z,20.43
2022-09-26T06:31:48.703Z,19.33
2022-09-26T06:34:15.591Z,19.63
2022-09-26T06:36:42.753Z,20.00
2022-09-26T06:39:10.205Z,19.20
2022-09-26T06:41:37.044Z,19.53
2022-09-26T06:44:04.258Z,20.23
2022-09-26T06:46:31.526Z,20.60
2022-09-26T06:48:58.365Z,20.17
2022-09-26T06:51:25.194Z,21.07
2022-09-26T06:53:55.042Z,22.67
2022-09-26T06:56:21.969Z,20.77
2022-09-26T06:58:51.939Z,20.73
2022-09-26T07:01:19.082Z,20.97
2022-09-26T07:03:46.273Z,20.07
2022-09-26T07:06:16.211Z,20.73
2022-09-26T07:09:01.393Z,19.33
2022-09-26T07:11:56.205Z,21.00
2022-09-26T07:14:17.927Z,21.43
2022-09-26T07:16:54.415Z,21.47
2022-09-26T07:19:28.659Z,21.23
2022-09-26T07:21:55.588Z,21.60
2022-09-26T07:24:22.388Z,22.53
2022-09-26T07:26:49.844Z,22.97
2022-09-26T07:29:16.678Z,22.37
2022-09-26T07:31:43.622Z,21.93
2022-09-26T07:34:14.581Z,21.10
2022-09-26T07:36:48.520Z,21.97
2022-09-26T07:39:15.544Z,21.53
2022-09-26T07:41:45.843Z,20.63
2022-09-26T07:47:19.045Z,21.60
2022-09-26T07:50:04.456Z,21.57
2022-09-26T07:52:32.759Z,21.47
2022-09-26T07:55:00.000Z,23.73
2022-09-26T07:57:26.843Z,23.33
2022-09-26T07:59:54.428Z,23.70
2022-09-26T08:02:29.155Z,23.47
2022-09-26T08:05:00.752Z,21.67
2022-09-26T08:07:27.986Z,20.87
2022-09-26T08:09:55.297Z,20.77
2022-09-26T08:12:27.182Z,20.00
2022-09-26T08:14:54.149Z,20.43
2022-09-26T08:17:21.350Z,20.90
2022-09-26T08:19:48.343Z,20.80
2022-09-26T08:22:15.148Z,20.10
2022-09-26T08:24:44.342Z,19.67
2022-09-26T08:27:11.196Z,20.27
2022-09-26T08:29:37.962Z,20.67
2022-09-26T08:32:04.833Z,20.90
2022-09-26T08:34:32.167Z,20.80
2022-09-26T08:36:59.137Z,21.40
2022-09-26T08:39:33.258Z,21.00
2022-09-26T08:42:23.889Z,21.60
2022-09-26T08:45:26.218Z,21.87
2022-09-26T08:48:22.166Z,21.30
2022-09-26T08:50:57.211Z,22.50
2022-09-26T08:53:36.993Z,21.80
2022-09-26T08:56:08.339Z,24.07
2022-09-26T08:58:43.993Z,23.63
2022-09-26T09:01:26.549Z,25.37
2022-09-26T09:04:19.034Z,23.73
2022-09-26T09:06:48.198Z,24.10
2022-09-26T09:09:16.858Z,23.43
2022-09-26T09:11:52.754Z,23.03
2022-09-26T09:15:20.565Z,22.43
2022-09-26T09:18:13.734Z,22.17
2022-09-26T09:20:59.521Z,21.40
2022-09-26T09:24:10.163Z,21.30
2022-09-26T09:30:39.731Z,20.70
2022-09-26T09:33:18.993Z,20.73
2022-09-26T09:36:15.031Z,19.83
2022-09-26T09:38:45.976Z,19.83
2022-09-26T09:41:21.168Z,18.87
2022-09-26T09:43:56.607Z,17.50
2022-09-26T09:46:29.134Z,16.60
2022-09-26T09:49:02.442Z,18.10
2022-09-26T09:51:51.544Z,18.20
2022-09-26T09:54:21.404Z,16.73
2022-09-26T09:56:58.272Z,16.40
2022-09-26T09:59:54.009Z,16.77
2022-09-26T10:02:47.165Z,16.30
2022-09-26T10:05:33.675Z,15.80
2022-09-26T10:08:00.956Z,16.30
2022-09-26T10:10:56.404Z,14.53
2022-09-26T10:13:27.011Z,15.07
2022-09-26T10:16:15.390Z,14.67
2022-09-26T10:19:03.640Z,13.80
2022-09-26T10:21:39.556Z,12.33
2022-09-26T10:24:22.236Z,13.00
2022-09-26T10:26:50.278Z,12.50
2022-09-26T10:32:17.758Z,12.40
2022-09-26T10:35:04.410Z,12.50
2022-09-26T10:37:31.476Z,12.57
2022-09-26T10:40:17.909Z,13.47
2022-09-26T10:42:47.597Z,12.57
2022-09-26T10:45:16.057Z,11.70
2022-09-26T10:47:46.204Z,11.40
2022-09-26T10:50:25.022Z,11.73
2022-09-26T10:53:02.030Z,12.40
2022-09-26T10:55:40.271Z,11.70
2022-09-26T10:58:15.404Z,12.60
2022-09-26T11:00:46.412Z,11.60
2022-09-26T11:03:20.068Z,12.17
2022-09-26T11:05:57.701Z,11.82
2022-09-26T11:08:37.438Z,10.70
2022-09-26T11:11:14.373Z,9.95
2022-09-26T11:14:10.846Z,11.17
2022-09-26T11:16:53.966Z,10.77
2022-09-26T11:19:54.665Z,10.32
2022-09-26T11:22:34.652Z,8.38
2022-09-26T11:25:17.316Z,8.25
2022-09-26T11:28:07.173Z,8.32
2022-09-26T11:30:48.353Z,8.45
2022-09-26T11:33:18.870Z,7.80
2022-09-26T11:36:18.032Z,8.38
2022-09-26T11:38:55.561Z,7.63
2022-09-26T11:41:44.184Z,7.72
2022-09-26T11:44:20.044Z,7.88
2022-09-26T11:47:05.737Z,7.50
2022-09-26T11:49:41.852Z,7.72
2022-09-26T11:52:20.659Z,7.88
2022-09-26T11:55:08.354Z,8.32
2022-09-26T11:57:43.961Z,8.68
2022-09-26T12:00:29.107Z,9.65
2022-09-26T12:03:02.168Z,9.25
2022-09-26T12:06:01.365Z,9.30
2022-09-26T12:08:48.547Z,10.55
2022-09-26T12:11:21.356Z,10.43
2022-09-26T12:14:02.085Z,10.45
2022-09-26T12:17:04.043Z,10.60
2022-09-26T12:19:47.232Z,11.23
2022-09-26T12:22:29.808Z,10.73
2022-09-26T12:25:50.127Z,10.38
2022-09-26T12:28:20.394Z,10.25
2022-09-26T12:31:14.030Z,10.45
2022-09-26T12:34:18.117Z,10.52
2022-09-26T12:36:51.220Z,10.35
2022-09-26T12:39:40.722Z,10.50
2022-09-26T12:42:27.263Z,10.07
2022-09-26T12:45:03.199Z,9.40
2022-09-26T12:48:04.848Z,10.00
2022-09-26T12:50:34.387Z,9.63
2022-09-26T12:53:10.270Z,9.65
2022-09-26T12:55:49.170Z,8.90
2022-09-26T12:58:50.201Z,9.07
2022-09-26T13:01:28.831Z,9.15
2022-09-26T13:04:24.812Z,8.97
2022-09-26T13:07:17.723Z,9.27
2022-09-26T13:10:04.912Z,9.00
2022-09-26T13:12:56.183Z,9.43
2022-09-26T13:15:58.286Z,8.70
2022-09-26T13:18:43.542Z,7.43
2022-09-26T13:21:33.549Z,7.80
2022-09-26T13:24:13.408Z,7.90
2022-09-26T13:26:46.978Z,8.87
2022-09-26T13:29:20.863Z,8.07
2022-09-26T13:31:55.421Z,8.10
2022-09-26T13:34:40.219Z,7.47
2022-09-26T13:37:19.604Z,7.47
2022-09-26T13:40:20.400Z,7.07
2022-09-26T13:43:21.631Z,6.47
2022-09-26T13:46:00.482Z,6.53
2022-09-26T13:48:50.255Z,6.60
2022-09-26T13:51:41.980Z,6.50
2022-09-26T13:54:27.601Z,6.90
2022-09-26T13:56:56.011Z,6.57
2022-09-26T14:00:12.442Z,6.83
2022-09-26T14:02:39.576Z,7.57
2022-09-26T14:05:28.781Z,7.77
2022-09-26T14:08:14.413Z,7.40
2022-09-26T14:11:01.059Z,7.87
2022-09-26T14:13:36.892Z,7.73
2022-09-26T14:16:34.232Z,9.07
2022-09-26T14:19:16.157Z,7.77
2022-09-26T14:22:16.063Z,8.07
2022-09-26T14:24:44.001Z,7.73
2022-09-26T14:27:24.990Z,8.10
2022-09-26T14:30:23.714Z,7.93
2022-09-26T14:32:54.226Z,9.37
2022-09-26T14:35:28.564Z,9.50
2022-09-26T14:38:20.398Z,8.10
2022-09-26T14:40:58.486Z,7.73
2022-09-26T14:43:30.177Z,7.77
2022-09-26T14:46:05.813Z,8.23
2022-09-26T14:48:40.654Z,8.23
2022-09-26T14:51:25.224Z,7.67
2022-09-26T14:54:01.983Z,8.13
2022-09-26T14:56:32.790Z,8.33
2022-09-26T14:59:24.828Z,8.47
2022-09-26T15:02:14.547Z,7.67
2022-09-26T15:04:43.591Z,8.40
2022-09-26T15:07:25.026Z,8.17
2022-09-26T15:10:02.251Z,8.23
2022-09-26T15:12:44.279Z,8.40
2022-09-26T15:15:18.297Z,8.57
2022-09-26T15:17:56.454Z,8.50
2022-09-26T15:20:25.384Z,8.30
2022-09-26T15:23:11.272Z,8.90
2022-09-26T15:25:38.752Z,8.07
2022-09-26T15:28:05.799Z,8.80
2022-09-26T15:30:37.350Z,8.33
2022-09-26T15:33:04.809Z,8.40
2022-09-26T15:35:32.742Z,8.70
2022-09-26T15:38:02.941Z,8.13
2022-09-26T15:40:31.987Z,8.37
2022-09-26T15:43:09.612Z,9.00
2022-09-26T15:45:46.450Z,8.63
2022-09-26T15:48:19.382Z,8.10
2022-09-26T15:50:53.177Z,8.03
2022-09-26T15:53:34.911Z,8.67
2022-09-26T15:56:13.095Z,8.60
2022-09-26T15:58:40.038Z,8.57
2022-09-26T16:01:15.040Z,8.67
2022-09-26T16:04:02.327Z,8.00
2022-09-26T16:06:37.703Z,8.93
2022-09-26T16:09:25.903Z,9.30
2022-09-26T16:11:53.368Z,9.13
2022-09-26T16:14:34.372Z,8.20
2022-09-26T16:17:14.020Z,9.50
2022-09-26T16:19:50.499Z,12.47
2022-09-26T16:22:37.127Z,10.13
2022-09-26T16:25:27.740Z,9.60
2022-09-26T16:27:58.499Z,10.07
2022-09-26T16:30:28.343Z,10.03
2022-09-26T16:33:13.567Z,9.50
2022-09-26T16:35:48.592Z,9.50
2022-09-26T16:38:21.220Z,9.43
2022-09-26T16:40:58.095Z,9.93
2022-09-26T16:43:29.439Z,9.60
2022-09-26T16:46:01.374Z,9.63
2022-09-26T16:48:40.821Z,10.00
2022-09-26T16:51:13.825Z,9.80
2022-09-26T16:53:44.322Z,9.90
2022-09-26T16:56:17.603Z,9.47
2022-09-26T16:59:06.872Z,9.27
2022-09-26T17:01:52.807Z,8.97
2022-09-26T17:04:33.067Z,8.50
2022-09-26T17:07:09.725Z,8.47
2022-09-26T17:09:45.809Z,8.40
2022-09-26T17:12:21.874Z,8.90
2022-09-26T17:14:55.197Z,8.30
2022-09-26T17:17:30.330Z,8.23
2022-09-26T17:19:59.651Z,8.27
2022-09-26T17:22:27.511Z,8.20
2022-09-26T17:24:55.038Z,8.40
2022-09-26T17:27:28.223Z,7.63
2022-09-26T17:30:00.324Z,7.40
2022-09-26T17:32:35.833Z,7.30
2022-09-26T17:35:31.220Z,6.53
2022-09-26T17:37:58.613Z,6.97
2022-09-26T17:40:28.243Z,7.80
2022-09-26T17:42:57.766Z,7.93
2022-09-26T17:45:30.858Z,8.07
2022-09-26T17:48:10.484Z,8.10
2022-09-26T17:50:38.873Z,7.67
2022-09-26T17:53:08.001Z,8.20
2022-09-26T17:55:37.865Z,7.93
2022-09-26T17:58:10.619Z,7.70
2022-09-26T18:00:40.507Z,7.87
2022-09-26T18:03:13.585Z,8.13
2022-09-26T18:05:44.751Z,8.63
2022-09-26T18:08:37.547Z,9.20
2022-09-26T18:11:17.153Z,9.80
2022-09-26T18:13:52.538Z,9.23
2022-09-26T18:16:19.854Z,9.27
2022-09-26T18:18:48.019Z,7.80
2022-09-26T18:21:18.913Z,6.97
2022-09-26T18:23:57.027Z,6.00
2022-09-26T18:26:33.483Z,6.00
2022-09-26T18:29:07.566Z,5.13
2022-09-26T18:31:39.426Z,5.10
2022-09-26T18:34:11.533Z,4.37
2022-09-26T18:36:39.308Z,4.07
2022-09-26T18:39:11.179Z,3.80
2022-09-26T18:41:40.042Z,3.83
2022-09-26T18:44:11.306Z,3.67
2022-09-26T18:46:41.073Z,3.33
2022-09-26T18:49:12.821Z,3.40
2022-09-26T18:51:43.735Z,3.67
2022-09-26T18:54:15.914Z,3.53
2022-09-26T18:57:01.807Z,3.50
2022-09-26T18:59:31.263Z,4.00
2022-09-26T19:02:00.001Z,3.77
2022-09-26T19:04:27.707Z,3.70
2022-09-26T19:07:05.541Z,4.47
2022-09-26T19:09:35.091Z,4.33
2022-09-26T19:12:03.339Z,4.70
2022-09-26T19:14:31.586Z,4.63
2022-09-26T19:16:59.330Z,5.27
2022-09-26T19:19:28.695Z,4.63
2022-09-26T19:21:57.913Z,6.07
2022-09-26T19:24:46.156Z,6.00
2022-09-26T19:27:23.655Z,8.17
2022-09-26T19:30:16.894Z,19.80
2022-09-26T19:32:46.654Z,8.20
2022-09-26T19:35:34.085Z,7.73
2022-09-26T19:38:03.316Z,8.27
2022-09-26T19:40:30.337Z,7.80
2022-09-26T19:42:57.971Z,7.60
2022-09-26T19:45:26.039Z,8.20
2022-09-26T19:47:56.028Z,8.40
2022-09-26T19:50:26.571Z,8.10
2022-09-26T19:52:56.281Z,7.80
2022-09-26T19:55:25.700Z,7.53
2022-09-26T19:58:12.140Z,7.50
2022-09-26T20:00:43.510Z,7.90
2022-09-26T20:03:29.607Z,8.20
2022-09-26T20:05:56.435Z,8.40
2022-09-26T20:08:25.626Z,8.30
2022-09-26T20:10:54.369Z,8.80
2022-09-26T20:13:21.515Z,8.23
2022-09-26T20:15:49.250Z,8.47
2022-09-26T20:18:24.073Z,9.50
2022-09-26T20:20:55.693Z,9.37
2022-09-26T20:23:25.898Z,8.73
2022-09-26T20:25:55.926Z,8.93
2022-09-26T20:28:22.869Z,9.17
2022-09-26T20:30:52.528Z,9.33
2022-09-26T20:33:23.822Z,9.23
2022-09-26T20:36:03.229Z,10.30
2022-09-26T20:38:33.725Z,9.43
2022-09-26T20:41:16.049Z,10.10
2022-09-26T20:43:46.543Z,9.80
2022-09-26T20:46:14.185Z,9.37
2022-09-26T20:48:43.084Z,9.63
2022-09-26T20:51:20.889Z,9.40
2022-09-26T20:53:47.713Z,9.80
2022-09-26T20:56:17.001Z,9.80
2022-09-26T20:58:44.571Z,9.87
2022-09-26T21:01:16.298Z,9.80
2022-09-26T21:03:55.273Z,9.87
2022-09-26T21:06:31.915Z,9.60
2022-09-26T21:08:59.071Z,10.37
2022-09-26T21:11:31.862Z,10.37
2022-09-26T21:13:58.738Z,10.80
2022-09-26T21:16:25.935Z,11.00
2022-09-26T21:18:53.113Z,10.60
2022-09-26T21:21:25.866Z,10.30
2022-09-26T21:23:53.462Z,10.20
2022-09-26T21:26:28.489Z,10.50
2022-09-26T21:28:56.373Z,10.30
2022-09-26T21:31:30.478Z,10.83
2022-09-26T21:33:59.215Z,10.77
2022-09-26T21:36:35.678Z,10.93
2022-09-26T21:39:02.744Z,10.90
2022-09-26T21:41:30.195Z,11.10
2022-09-26T21:44:10.776Z,11.10
2022-09-26T21:46:37.636Z,11.53
2022-09-26T21:49:04.462Z,10.70
2022-09-26T21:51:31.776Z,11.37
2022-09-26T21:54:11.673Z,12.10
2022-09-26T21:56:50.015Z,11.73
2022-09-26T21:59:19.962Z,11.53
2022-09-26T22:01:47.193Z,11.63
2022-09-26T22:04:14.547Z,10.97
2022-09-26T22:06:42.241Z,11.60
2022-09-26T22:09:09.605Z,12.30
2022-09-26T22:11:37.686Z,12.50
2022-09-26T22:14:05.445Z,11.90
2022-09-26T22:16:32.484Z,11.70
2022-09-26T22:19:00.312Z,12.07
2022-09-26T22:21:27.897Z,12.00
2022-09-26T22:23:54.894Z,12.70
2022-09-26T22:26:21.773Z,12.33
2022-09-26T22:28:49.305Z,12.37
2022-09-26T22:31:22.789Z,11.83
2022-09-26T22:33:49.845Z,11.77
2022-09-26T22:36:16.814Z,12.60
2022-09-26T22:38:43.938Z,11.47
2022-09-26T22:41:11.468Z,11.10
2022-09-26T22:43:38.322Z,11.40
2022-09-26T22:46:07.873Z,11.87
2022-09-26T22:48:46.190Z,11.13
2022-09-26T22:51:14.623Z,11.83
2022-09-26T22:53:42.902Z,11.40
2022-09-26T22:56:12.766Z,11.43
2022-09-26T22:58:43.126Z,12.20
2022-09-26T23:01:14.375Z,11.10
2022-09-26T23:03:42.061Z,11.93
2022-09-26T23:06:09.804Z,11.83
2022-09-26T23:08:37.053Z,11.87
2022-09-26T23:11:04.860Z,12.17
2022-09-26T23:13:33.210Z,12.43
2022-09-26T23:18:50.845Z,14.33
2022-09-26T23:21:22.801Z,15.43
2022-09-26T23:23:57.079Z,14.53
2022-09-26T23:26:27.602Z,16.70
2022-09-26T23:28:56.574Z,16.37
2022-09-26T23:31:25.194Z,16.70
2022-09-26T23:33:52.843Z,18.67
2022-09-26T23:36:19.904Z,17.97
2022-09-26T23:38:47.252Z,17.67
2022-09-26T23:41:14.558Z,18.83
2022-09-26T23:43:41.908Z,19.33
2022-09-26T23:46:09.605Z,19.20
2022-09-26T23:48:37.282Z,19.40
2022-09-26T23:51:04.266Z,21.13
2022-09-26T23:53:31.291Z,20.90
2022-09-26T23:56:09.990Z,21.97
2022-09-26T23:58:37.920Z,21.63
